sensor_id;sensor_type;location;lat;lon;timestamp;P1;durP1;ratioP1;P2;durP2;ratioP2
11283;SDS011;5698;47.332;11.180;2023-08-17T00:02:21;2.23;;;1.60;;
11283;SDS011;5698;47.332;11.180;2023-08-17T00:04:48;1.73;;;1.63;;
11283;SDS011;5698;47.332;11.180;2023-08-17T00:07:16;1.83;;;1.70;;
11283;SDS011;5698;47.332;11.180;2023-08-17T00:09:43;1.97;;;1.83;;
11283;SDS011;5698;47.332;11.180;2023-08-17T00:12:10;1.77;;;1.50;;
11283;SDS011;5698;47.332;11.180;2023-08-17T00:14:37;1.90;;;1.70;;
11283;SDS011;5698;47.332;11.180;2023-08-17T00:17:04;2.23;;;1.77;;
11283;SDS011;5698;47.332;11.180;2023-08-17T00:19:32;2.20;;;1.73;;
11283;SDS011;5698;47.332;11.180;2023-08-17T00:21:59;1.70;;;1.40;;
11283;SDS011;5698;47.332;11.180;2023-08-17T00:24:27;1.70;;;1.50;;
11283;SDS011;5698;47.332;11.180;2023-08-17T00:26:54;3.97;;;1.87;;
11283;SDS011;5698;47.332;11.180;2023-08-17T00:29:21;1.97;;;1.80;;
11283;SDS011;5698;47.332;11.180;2023-08-17T00:31:48;2.60;;;1.77;;
11283;SDS011;5698;47.332;11.180;2023-08-17T00:34:16;1.57;;;1.37;;
11283;SDS011;5698;47.332;11.180;2023-08-17T00:36:43;1.83;;;1.60;;
11283;SDS011;5698;47.332;11.180;2023-08-17T00:39:10;2.10;;;1.90;;
11283;SDS011;5698;47.332;11.180;2023-08-17T00:41:38;1.70;;;1.50;;
11283;SDS011;5698;47.332;11.180;2023-08-17T00:44:05;2.90;;;1.90;;
11283;SDS011;5698;47.332;11.180;2023-08-17T00:46:32;3.17;;;1.80;;
11283;SDS011;5698;47.332;11.180;2023-08-17T00:48:59;4.63;;;1.63;;
11283;SDS011;5698;47.332;11.180;2023-08-17T00:51:26;1.87;;;1.57;;
11283;SDS011;5698;47.332;11.180;2023-08-17T00:53:57;2.90;;;1.67;;
11283;SDS011;5698;47.332;11.180;2023-08-17T00:56:25;3.07;;;1.70;;
11283;SDS011;5698;47.332;11.180;2023-08-17T00:58:54;1.53;;;1.30;;
11283;SDS011;5698;47.332;11.180;2023-08-17T01:01:22;1.90;;;1.40;;
11283;SDS011;5698;47.332;11.180;2023-08-17T01:03:49;1.60;;;1.50;;
11283;SDS011;5698;47.332;11.180;2023-08-17T01:06:16;1.70;;;1.40;;
11283;SDS011;5698;47.332;11.180;2023-08-17T01:08:44;2.13;;;1.60;;
11283;SDS011;5698;47.332;11.180;2023-08-17T01:11:13;2.83;;;1.57;;
11283;SDS011;5698;47.332;11.180;2023-08-17T01:13:47;2.63;;;1.77;;
11283;SDS011;5698;47.332;11.180;2023-08-17T01:16:21;2.00;;;1.80;;
11283;SDS011;5698;47.332;11.180;2023-08-17T01:18:52;1.63;;;1.53;;
11283;SDS011;5698;47.332;11.180;2023-08-17T01:21:21;1.70;;;1.60;;
11283;SDS011;5698;47.332;11.180;2023-08-17T01:23:51;2.10;;;1.40;;
11283;SDS011;5698;47.332;11.180;2023-08-17T01:26:23;4.07;;;1.70;;
11283;SDS011;5698;47.332;11.180;2023-08-17T01:28:50;1.83;;;1.73;;
11283;SDS011;5698;47.332;11.180;2023-08-17T01:31:19;2.90;;;1.57;;
11283;SDS011;5698;47.332;11.180;2023-08-17T01:33:50;1.67;;;1.50;;
11283;SDS011;5698;47.332;11.180;2023-08-17T01:36:25;1.70;;;1.60;;
11283;SDS011;5698;47.332;11.180;2023-08-17T01:38:57;3.70;;;1.33;;
11283;SDS011;5698;47.332;11.180;2023-08-17T01:41:26;1.70;;;1.60;;
11283;SDS011;5698;47.332;11.180;2023-08-17T01:43:54;4.00;;;1.50;;
11283;SDS011;5698;47.332;11.180;2023-08-17T01:46:23;1.53;;;1.40;;
11283;SDS011;5698;47.332;11.180;2023-08-17T01:48:54;1.97;;;1.80;;
11283;SDS011;5698;47.332;11.180;2023-08-17T01:51:21;2.87;;;1.30;;
11283;SDS011;5698;47.332;11.180;2023-08-17T01:53:49;2.07;;;1.57;;
11283;SDS011;5698;47.332;11.180;2023-08-17T01:56:17;3.33;;;1.70;;
11283;SDS011;5698;47.332;11.180;2023-08-17T01:58:44;2.90;;;1.70;;
11283;SDS011;5698;47.332;11.180;2023-08-17T02:01:11;3.30;;;1.67;;
11283;SDS011;5698;47.332;11.180;2023-08-17T02:03:38;1.90;;;1.67;;
11283;SDS011;5698;47.332;11.180;2023-08-17T02:06:05;1.70;;;1.47;;
11283;SDS011;5698;47.332;11.180;2023-08-17T02:08:33;2.10;;;1.93;;
11283;SDS011;5698;47.332;11.180;2023-08-17T02:11:00;1.73;;;1.60;;
11283;SDS011;5698;47.332;11.180;2023-08-17T02:13:28;2.80;;;1.60;;
11283;SDS011;5698;47.332;11.180;2023-08-17T02:15:55;2.53;;;1.43;;
11283;SDS011;5698;47.332;11.180;2023-08-17T02:18:22;1.90;;;1.70;;
11283;SDS011;5698;47.332;11.180;2023-08-17T02:20:49;1.50;;;1.40;;
11283;SDS011;5698;47.332;11.180;2023-08-17T02:23:16;1.47;;;1.37;;
11283;SDS011;5698;47.332;11.180;2023-08-17T02:25:43;1.40;;;1.30;;
11283;SDS011;5698;47.332;11.180;2023-08-17T02:28:10;1.97;;;1.60;;
11283;SDS011;5698;47.332;11.180;2023-08-17T02:30:38;2.60;;;1.40;;
11283;SDS011;5698;47.332;11.180;2023-08-17T02:33:05;2.80;;;1.50;;
11283;SDS011;5698;47.332;11.180;2023-08-17T02:35:32;3.23;;;1.67;;
11283;SDS011;5698;47.332;11.180;2023-08-17T02:37:59;2.17;;;1.50;;
11283;SDS011;5698;47.332;11.180;2023-08-17T02:40:26;1.97;;;1.60;;
11283;SDS011;5698;47.332;11.180;2023-08-17T02:42:53;2.77;;;1.67;;
11283;SDS011;5698;47.332;11.180;2023-08-17T02:45:20;2.20;;;1.53;;
11283;SDS011;5698;47.332;11.180;2023-08-17T02:47:49;2.53;;;1.80;;
11283;SDS011;5698;47.332;11.180;2023-08-17T02:50:15;1.60;;;1.50;;
11283;SDS011;5698;47.332;11.180;2023-08-17T02:52:44;2.93;;;1.70;;
11283;SDS011;5698;47.332;11.180;2023-08-17T02:55:11;2.30;;;1.60;;
11283;SDS011;5698;47.332;11.180;2023-08-17T02:57:38;1.70;;;1.60;;
11283;SDS011;5698;47.332;11.180;2023-08-17T03:00:05;1.57;;;1.37;;
11283;SDS011;5698;47.332;11.180;2023-08-17T03:02:33;1.90;;;1.80;;
11283;SDS011;5698;47.332;11.180;2023-08-17T03:05:02;3.47;;;1.93;;
11283;SDS011;5698;47.332;11.180;2023-08-17T03:07:29;3.07;;;1.40;;
11283;SDS011;5698;47.332;11.180;2023-08-17T03:09:56;2.03;;;1.60;;
11283;SDS011;5698;47.332;11.180;2023-08-17T03:12:23;1.77;;;1.43;;
11283;SDS011;5698;47.332;11.180;2023-08-17T03:14:50;2.70;;;1.67;;
11283;SDS011;5698;47.332;11.180;2023-08-17T03:17:17;1.80;;;1.50;;
11283;SDS011;5698;47.332;11.180;2023-08-17T03:19:44;3.07;;;1.47;;
11283;SDS011;5698;47.332;11.180;2023-08-17T03:22:12;1.47;;;1.37;;
11283;SDS011;5698;47.332;11.180;2023-08-17T03:24:39;2.50;;;1.60;;
11283;SDS011;5698;47.332;11.180;2023-08-17T03:27:06;1.93;;;1.70;;
11283;SDS011;5698;47.332;11.180;2023-08-17T03:29:33;1.93;;;1.43;;
11283;SDS011;5698;47.332;11.180;2023-08-17T03:32:00;3.93;;;1.50;;
11283;SDS011;5698;47.332;11.180;2023-08-17T03:34:27;1.93;;;1.70;;
11283;SDS011;5698;47.332;11.180;2023-08-17T03:36:54;2.03;;;1.73;;
11283;SDS011;5698;47.332;11.180;2023-08-17T03:39:22;2.37;;;1.60;;
11283;SDS011;5698;47.332;11.180;2023-08-17T03:41:49;1.70;;;1.50;;
11283;SDS011;5698;47.332;11.180;2023-08-17T03:44:16;1.90;;;1.80;;
11283;SDS011;5698;47.332;11.180;2023-08-17T03:46:43;2.43;;;1.63;;
11283;SDS011;5698;47.332;11.180;2023-08-17T03:49:10;3.30;;;1.70;;
11283;SDS011;5698;47.332;11.180;2023-08-17T03:51:37;4.93;;;1.80;;
11283;SDS011;5698;47.332;11.180;2023-08-17T03:54:04;2.63;;;2.07;;
11283;SDS011;5698;47.332;11.180;2023-08-17T03:56:33;1.70;;;1.60;;
11283;SDS011;5698;47.332;11.180;2023-08-17T03:59:00;2.30;;;1.80;;
11283;SDS011;5698;47.332;11.180;2023-08-17T04:01:26;1.47;;;1.30;;
11283;SDS011;5698;47.332;11.180;2023-08-17T04:03:53;1.60;;;1.50;;
11283;SDS011;5698;47.332;11.180;2023-08-17T04:06:21;3.10;;;1.87;;
11283;SDS011;5698;47.332;11.180;2023-08-17T04:08:48;2.80;;;1.67;;
11283;SDS011;5698;47.332;11.180;2023-08-17T04:11:15;2.07;;;1.80;;
11283;SDS011;5698;47.332;11.180;2023-08-17T04:13:44;2.33;;;1.80;;
11283;SDS011;5698;47.332;11.180;2023-08-17T04:16:10;1.97;;;1.70;;
11283;SDS011;5698;47.332;11.180;2023-08-17T04:18:37;1.83;;;1.60;;
11283;SDS011;5698;47.332;11.180;2023-08-17T04:21:04;1.83;;;1.70;;
11283;SDS011;5698;47.332;11.180;2023-08-17T04:23:31;2.10;;;1.90;;
11283;SDS011;5698;47.332;11.180;2023-08-17T04:25:58;2.57;;;1.60;;
11283;SDS011;5698;47.332;11.180;2023-08-17T04:28:25;2.37;;;1.80;;
11283;SDS011;5698;47.332;11.180;2023-08-17T04:30:54;3.03;;;1.80;;
11283;SDS011;5698;47.332;11.180;2023-08-17T04:33:21;2.33;;;1.70;;
11283;SDS011;5698;47.332;11.180;2023-08-17T04:35:47;2.07;;;1.70;;
11283;SDS011;5698;47.332;11.180;2023-08-17T04:38:14;1.93;;;1.70;;
11283;SDS011;5698;47.332;11.180;2023-08-17T04:40:41;2.97;;;1.80;;
11283;SDS011;5698;47.332;11.180;2023-08-17T04:43:09;1.90;;;1.80;;
11283;SDS011;5698;47.332;11.180;2023-08-17T04:45:36;3.70;;;1.70;;
11283;SDS011;5698;47.332;11.180;2023-08-17T04:48:05;2.23;;;1.70;;
11283;SDS011;5698;47.332;11.180;2023-08-17T04:50:32;1.60;;;1.50;;
11283;SDS011;5698;47.332;11.180;2023-08-17T04:52:59;1.83;;;1.60;;
11283;SDS011;5698;47.332;11.180;2023-08-17T04:55:27;3.13;;;1.73;;
11283;SDS011;5698;47.332;11.180;2023-08-17T04:57:54;2.17;;;1.80;;
11283;SDS011;5698;47.332;11.180;2023-08-17T05:00:22;4.50;;;1.90;;
11283;SDS011;5698;47.332;11.180;2023-08-17T05:02:53;1.67;;;1.50;;
11283;SDS011;5698;47.332;11.180;2023-08-17T05:05:21;2.53;;;1.90;;
11283;SDS011;5698;47.332;11.180;2023-08-17T05:07:48;2.40;;;1.70;;
11283;SDS011;5698;47.332;11.180;2023-08-17T05:10:15;2.00;;;1.70;;
11283;SDS011;5698;47.332;11.180;2023-08-17T05:12:42;2.03;;;1.67;;
11283;SDS011;5698;47.332;11.180;2023-08-17T05:15:09;2.03;;;1.53;;
11283;SDS011;5698;47.332;11.180;2023-08-17T05:17:36;2.97;;;1.50;;
11283;SDS011;5698;47.332;11.180;2023-08-17T05:20:04;2.90;;;1.50;;
11283;SDS011;5698;47.332;11.180;2023-08-17T05:22:34;1.77;;;1.67;;
11283;SDS011;5698;47.332;11.180;2023-08-17T05:25:01;1.60;;;1.50;;
11283;SDS011;5698;47.332;11.180;2023-08-17T05:27:29;2.73;;;1.80;;
11283;SDS011;5698;47.332;11.180;2023-08-17T05:29:56;2.10;;;1.80;;
11283;SDS011;5698;47.332;11.180;2023-08-17T05:32:23;1.63;;;1.37;;
11283;SDS011;5698;47.332;11.180;2023-08-17T05:34:50;1.67;;;1.57;;
11283;SDS011;5698;47.332;11.180;2023-08-17T05:37:17;1.83;;;1.63;;
11283;SDS011;5698;47.332;11.180;2023-08-17T05:39:45;3.10;;;1.70;;
11283;SDS011;5698;47.332;11.180;2023-08-17T05:42:12;1.80;;;1.50;;
11283;SDS011;5698;47.332;11.180;2023-08-17T05:44:39;2.00;;;1.90;;
11283;SDS011;5698;47.332;11.180;2023-08-17T05:47:06;2.77;;;1.83;;
11283;SDS011;5698;47.332;11.180;2023-08-17T05:49:33;2.73;;;1.67;;
11283;SDS011;5698;47.332;11.180;2023-08-17T05:52:00;2.13;;;1.80;;
11283;SDS011;5698;47.332;11.180;2023-08-17T05:54:27;2.03;;;1.80;;
11283;SDS011;5698;47.332;11.180;2023-08-17T05:56:55;2.83;;;1.60;;
11283;SDS011;5698;47.332;11.180;2023-08-17T05:59:22;1.70;;;1.47;;
11283;SDS011;5698;47.332;11.180;2023-08-17T06:01:49;4.70;;;1.63;;
11283;SDS011;5698;47.332;11.180;2023-08-17T06:04:16;1.73;;;1.53;;
11283;SDS011;5698;47.332;11.180;2023-08-17T06:06:43;2.47;;;1.80;;
11283;SDS011;5698;47.332;11.180;2023-08-17T06:09:10;2.00;;;1.80;;
11283;SDS011;5698;47.332;11.180;2023-08-17T06:11:37;4.47;;;1.40;;
11283;SDS011;5698;47.332;11.180;2023-08-17T06:14:06;1.77;;;1.40;;
11283;SDS011;5698;47.332;11.180;2023-08-17T06:16:33;1.70;;;1.57;;
11283;SDS011;5698;47.332;11.180;2023-08-17T06:19:00;3.60;;;1.40;;
11283;SDS011;5698;47.332;11.180;2023-08-17T06:21:27;2.23;;;1.70;;
11283;SDS011;5698;47.332;11.180;2023-08-17T06:23:54;2.10;;;1.53;;
11283;SDS011;5698;47.332;11.180;2023-08-17T06:26:21;1.70;;;1.10;;
11283;SDS011;5698;47.332;11.180;2023-08-17T06:28:48;1.47;;;1.37;;
11283;SDS011;5698;47.332;11.180;2023-08-17T06:31:16;1.37;;;1.10;;
11283;SDS011;5698;47.332;11.180;2023-08-17T06:33:43;1.47;;;1.37;;
11283;SDS011;5698;47.332;11.180;2023-08-17T06:36:11;1.30;;;1.20;;
11283;SDS011;5698;47.332;11.180;2023-08-17T06:38:41;2.13;;;1.30;;
11283;SDS011;5698;47.332;11.180;2023-08-17T06:41:08;1.63;;;1.40;;
11283;SDS011;5698;47.332;11.180;2023-08-17T06:43:35;1.83;;;1.30;;
11283;SDS011;5698;47.332;11.180;2023-08-17T06:46:02;1.57;;;1.10;;
11283;SDS011;5698;47.332;11.180;2023-08-17T06:48:31;1.67;;;1.40;;
11283;SDS011;5698;47.332;11.180;2023-08-17T06:50:58;1.53;;;1.40;;
11283;SDS011;5698;47.332;11.180;2023-08-17T06:53:25;2.00;;;1.20;;
11283;SDS011;5698;47.332;11.180;2023-08-17T06:55:51;1.43;;;1.30;;
11283;SDS011;5698;47.332;11.180;2023-08-17T06:58:18;1.97;;;1.50;;
11283;SDS011;5698;47.332;11.180;2023-08-17T07:00:45;1.40;;;1.30;;
11283;SDS011;5698;47.332;11.180;2023-08-17T07:03:12;1.30;;;1.20;;
11283;SDS011;5698;47.332;11.180;2023-08-17T07:05:41;1.40;;;1.20;;
11283;SDS011;5698;47.332;11.180;2023-08-17T07:08:08;1.50;;;1.40;;
11283;SDS011;5698;47.332;11.180;2023-08-17T07:10:35;3.60;;;1.57;;
11283;SDS011;5698;47.332;11.180;2023-08-17T07:13:03;2.13;;;1.60;;
11283;SDS011;5698;47.332;11.180;2023-08-17T07:15:30;1.50;;;1.40;;
11283;SDS011;5698;47.332;11.180;2023-08-17T07:17:57;2.27;;;1.50;;
11283;SDS011;5698;47.332;11.180;2023-08-17T07:20:24;1.50;;;1.30;;
11283;SDS011;5698;47.332;11.180;2023-08-17T07:22:52;1.83;;;1.27;;
11283;SDS011;5698;47.332;11.180;2023-08-17T07:25:19;1.40;;;1.30;;
11283;SDS011;5698;47.332;11.180;2023-08-17T07:27:46;2.67;;;1.30;;
11283;SDS011;5698;47.332;11.180;2023-08-17T07:30:13;1.83;;;1.60;;
11283;SDS011;5698;47.332;11.180;2023-08-17T07:32:40;1.30;;;1.20;;
11283;SDS011;5698;47.332;11.180;2023-08-17T07:35:07;1.50;;;1.30;;
11283;SDS011;5698;47.332;11.180;2023-08-17T07:37:35;1.70;;;1.40;;
11283;SDS011;5698;47.332;11.180;2023-08-17T07:40:03;1.37;;;1.20;;
11283;SDS011;5698;47.332;11.180;2023-08-17T07:42:32;1.63;;;1.30;;
11283;SDS011;5698;47.332;11.180;2023-08-17T07:44:59;2.37;;;1.50;;
11283;SDS011;5698;47.332;11.180;2023-08-17T07:47:26;2.63;;;1.40;;
11283;SDS011;5698;47.332;11.180;2023-08-17T07:49:53;1.70;;;1.30;;
11283;SDS011;5698;47.332;11.180;2023-08-17T07:52:20;1.83;;;1.40;;
11283;SDS011;5698;47.332;11.180;2023-08-17T07:54:47;1.57;;;1.30;;
11283;SDS011;5698;47.332;11.180;2023-08-17T07:57:15;1.27;;;1.20;;
11283;SDS011;5698;47.332;11.180;2023-08-17T07:59:42;1.43;;;1.17;;
11283;SDS011;5698;47.332;11.180;2023-08-17T08:02:09;1.40;;;1.23;;
11283;SDS011;5698;47.332;11.180;2023-08-17T08:04:36;1.30;;;1.20;;
11283;SDS011;5698;47.332;11.180;2023-08-17T08:07:03;2.80;;;1.60;;
11283;SDS011;5698;47.332;11.180;2023-08-17T08:09:30;2.13;;;1.23;;
11283;SDS011;5698;47.332;11.180;2023-08-17T08:11:57;1.63;;;1.20;;
11283;SDS011;5698;47.332;11.180;2023-08-17T08:14:25;2.37;;;1.57;;
11283;SDS011;5698;47.332;11.180;2023-08-17T08:16:52;1.93;;;1.40;;
11283;SDS011;5698;47.332;11.180;2023-08-17T08:19:19;1.57;;;1.47;;
11283;SDS011;5698;47.332;11.180;2023-08-17T08:21:46;1.20;;;1.07;;
11283;SDS011;5698;47.332;11.180;2023-08-17T08:24:13;3.83;;;1.40;;
11283;SDS011;5698;47.332;11.180;2023-08-17T08:26:40;1.27;;;1.17;;
11283;SDS011;5698;47.332;11.180;2023-08-17T08:29:07;1.83;;;1.23;;
11283;SDS011;5698;47.332;11.180;2023-08-17T08:31:36;1.20;;;1.13;;
11283;SDS011;5698;47.332;11.180;2023-08-17T08:34:03;2.70;;;1.10;;
11283;SDS011;5698;47.332;11.180;2023-08-17T08:36:30;2.13;;;1.50;;
11283;SDS011;5698;47.332;11.180;2023-08-17T08:38:57;1.53;;;1.00;;
11283;SDS011;5698;47.332;11.180;2023-08-17T08:41:24;1.40;;;1.20;;
11283;SDS011;5698;47.332;11.180;2023-08-17T08:43:52;1.30;;;1.10;;
11283;SDS011;5698;47.332;11.180;2023-08-17T08:46:19;2.23;;;1.10;;
11283;SDS011;5698;47.332;11.180;2023-08-17T08:48:48;1.17;;;1.10;;
11283;SDS011;5698;47.332;11.180;2023-08-17T08:51:19;1.30;;;1.20;;
11283;SDS011;5698;47.332;11.180;2023-08-17T08:53:57;1.70;;;1.00;;
11283;SDS011;5698;47.332;11.180;2023-08-17T08:56:29;1.20;;;1.10;;
11283;SDS011;5698;47.332;11.180;2023-08-17T08:58:59;1.90;;;1.00;;
11283;SDS011;5698;47.332;11.180;2023-08-17T09:01:29;2.73;;;1.00;;
11283;SDS011;5698;47.332;11.180;2023-08-17T09:03:59;2.70;;;1.10;;
11283;SDS011;5698;47.332;11.180;2023-08-17T09:06:28;1.00;;;0.90;;
11283;SDS011;5698;47.332;11.180;2023-08-17T09:08:56;1.50;;;1.03;;
11283;SDS011;5698;47.332;11.180;2023-08-17T09:11:24;1.37;;;1.23;;
11283;SDS011;5698;47.332;11.180;2023-08-17T09:13:52;3.57;;;1.10;;
11283;SDS011;5698;47.332;11.180;2023-08-17T09:16:20;1.43;;;1.00;;
11283;SDS011;5698;47.332;11.180;2023-08-17T09:18:47;1.27;;;1.10;;
11283;SDS011;5698;47.332;11.180;2023-08-17T09:21:24;1.33;;;1.13;;
11283;SDS011;5698;47.332;11.180;2023-08-17T09:23:51;1.37;;;1.10;;
11283;SDS011;5698;47.332;11.180;2023-08-17T09:26:19;1.83;;;1.00;;
11283;SDS011;5698;47.332;11.180;2023-08-17T09:28:47;1.50;;;1.23;;
11283;SDS011;5698;47.332;11.180;2023-08-17T09:31:14;3.37;;;1.50;;
11283;SDS011;5698;47.332;11.180;2023-08-17T09:33:41;1.30;;;1.20;;
11283;SDS011;5698;47.332;11.180;2023-08-17T09:36:09;1.10;;;0.90;;
11283;SDS011;5698;47.332;11.180;2023-08-17T09:38:38;2.10;;;1.30;;
11283;SDS011;5698;47.332;11.180;2023-08-17T09:41:05;1.83;;;1.30;;
11283;SDS011;5698;47.332;11.180;2023-08-17T09:43:32;1.33;;;1.23;;
11283;SDS011;5698;47.332;11.180;2023-08-17T09:46:00;1.60;;;1.30;;
11283;SDS011;5698;47.332;11.180;2023-08-17T09:48:28;1.83;;;1.23;;
11283;SDS011;5698;47.332;11.180;2023-08-17T09:50:56;2.37;;;1.60;;
11283;SDS011;5698;47.332;11.180;2023-08-17T09:53:24;2.25;;;1.50;;
11283;SDS011;5698;47.332;11.180;2023-08-17T09:55:53;2.50;;;1.30;;
11283;SDS011;5698;47.332;11.180;2023-08-17T09:58:21;2.90;;;1.50;;
11283;SDS011;5698;47.332;11.180;2023-08-17T10:00:48;3.53;;;1.70;;
11283;SDS011;5698;47.332;11.180;2023-08-17T10:03:16;2.97;;;1.75;;
11283;SDS011;5698;47.332;11.180;2023-08-17T10:05:44;2.67;;;1.63;;
11283;SDS011;5698;47.332;11.180;2023-08-17T10:08:14;2.50;;;1.73;;
11283;SDS011;5698;47.332;11.180;2023-08-17T10:10:45;2.25;;;1.50;;
11283;SDS011;5698;47.332;11.180;2023-08-17T10:13:16;5.18;;;1.60;;
11283;SDS011;5698;47.332;11.180;2023-08-17T10:15:53;1.80;;;1.70;;
11283;SDS011;5698;47.332;11.180;2023-08-17T10:18:29;3.70;;;1.50;;
11283;SDS011;5698;47.332;11.180;2023-08-17T10:21:02;1.75;;;1.60;;
11283;SDS011;5698;47.332;11.180;2023-08-17T10:23:32;2.45;;;1.90;;
11283;SDS011;5698;47.332;11.180;2023-08-17T10:26:01;2.30;;;1.65;;
11283;SDS011;5698;47.332;11.180;2023-08-17T10:28:30;5.80;;;2.15;;
11283;SDS011;5698;47.332;11.180;2023-08-17T10:30:58;2.00;;;1.55;;
11283;SDS011;5698;47.332;11.180;2023-08-17T10:33:25;3.00;;;1.95;;
11283;SDS011;5698;47.332;11.180;2023-08-17T10:35:54;2.15;;;1.80;;
11283;SDS011;5698;47.332;11.180;2023-08-17T10:38:22;2.22;;;1.60;;
11283;SDS011;5698;47.332;11.180;2023-08-17T10:41:07;2.83;;;1.88;;
11283;SDS011;5698;47.332;11.180;2023-08-17T10:43:36;2.78;;;2.03;;
11283;SDS011;5698;47.332;11.180;2023-08-17T10:46:19;3.63;;;2.00;;
11283;SDS011;5698;47.332;11.180;2023-08-17T10:48:47;2.97;;;1.90;;
11283;SDS011;5698;47.332;11.180;2023-08-17T10:51:14;3.38;;;1.90;;
11283;SDS011;5698;47.332;11.180;2023-08-17T10:53:42;3.80;;;1.75;;
11283;SDS011;5698;47.332;11.180;2023-08-17T10:56:11;4.32;;;1.92;;
11283;SDS011;5698;47.332;11.180;2023-08-17T10:58:40;5.80;;;1.95;;
11283;SDS011;5698;47.332;11.180;2023-08-17T11:01:09;3.92;;;2.10;;
11283;SDS011;5698;47.332;11.180;2023-08-17T11:03:36;3.15;;;1.80;;
11283;SDS011;5698;47.332;11.180;2023-08-17T11:06:14;4.72;;;1.90;;
11283;SDS011;5698;47.332;11.180;2023-08-17T11:08:51;5.03;;;2.13;;
11283;SDS011;5698;47.332;11.180;2023-08-17T11:11:21;3.88;;;2.20;;
11283;SDS011;5698;47.332;11.180;2023-08-17T11:13:50;3.40;;;1.88;;
11283;SDS011;5698;47.332;11.180;2023-08-17T11:16:19;4.82;;;1.83;;
11283;SDS011;5698;47.332;11.180;2023-08-17T11:18:46;1.70;;;1.60;;
11283;SDS011;5698;47.332;11.180;2023-08-17T11:21:14;2.10;;;1.90;;
11283;SDS011;5698;47.332;11.180;2023-08-17T11:23:42;3.53;;;1.80;;
11283;SDS011;5698;47.332;11.180;2023-08-17T11:26:09;2.05;;;1.70;;
11283;SDS011;5698;47.332;11.180;2023-08-17T11:28:37;3.28;;;2.15;;
11283;SDS011;5698;47.332;11.180;2023-08-17T11:31:07;4.25;;;2.00;;
11283;SDS011;5698;47.332;11.180;2023-08-17T11:33:36;4.13;;;1.75;;
11283;SDS011;5698;47.332;11.180;2023-08-17T11:36:04;2.47;;;1.92;;
11283;SDS011;5698;47.332;11.180;2023-08-17T11:38:33;2.75;;;1.83;;
11283;SDS011;5698;47.332;11.180;2023-08-17T11:41:01;3.33;;;2.20;;
11283;SDS011;5698;47.332;11.180;2023-08-17T11:43:29;2.42;;;1.73;;
11283;SDS011;5698;47.332;11.180;2023-08-17T11:45:56;2.63;;;1.85;;
11283;SDS011;5698;47.332;11.180;2023-08-17T11:48:25;4.13;;;2.08;;
11283;SDS011;5698;47.332;11.180;2023-08-17T11:50:52;3.20;;;1.92;;
11283;SDS011;5698;47.332;11.180;2023-08-17T11:53:20;2.83;;;2.03;;
11283;SDS011;5698;47.332;11.180;2023-08-17T11:55:48;2.83;;;2.22;;
11283;SDS011;5698;47.332;11.180;2023-08-17T11:58:15;4.45;;;2.28;;
11283;SDS011;5698;47.332;11.180;2023-08-17T12:00:42;2.65;;;2.00;;
11283;SDS011;5698;47.332;11.180;2023-08-17T12:03:12;2.10;;;1.70;;
11283;SDS011;5698;47.332;11.180;2023-08-17T12:05:42;4.55;;;2.00;;
11283;SDS011;5698;47.332;11.180;2023-08-17T12:08:12;3.25;;;1.85;;
11283;SDS011;5698;47.332;11.180;2023-08-17T12:10:40;4.32;;;1.90;;
11283;SDS011;5698;47.332;11.180;2023-08-17T12:13:10;2.97;;;2.00;;
11283;SDS011;5698;47.332;11.180;2023-08-17T12:15:38;3.83;;;2.15;;
11283;SDS011;5698;47.332;11.180;2023-08-17T12:18:05;6.68;;;2.00;;
11283;SDS011;5698;47.332;11.180;2023-08-17T12:20:32;3.65;;;1.90;;
11283;SDS011;5698;47.332;11.180;2023-08-17T12:23:03;4.50;;;2.00;;
11283;SDS011;5698;47.332;11.180;2023-08-17T12:25:30;2.35;;;1.88;;
11283;SDS011;5698;47.332;11.180;2023-08-17T12:27:58;3.75;;;1.92;;
11283;SDS011;5698;47.332;11.180;2023-08-17T12:30:26;4.50;;;1.80;;
11283;SDS011;5698;47.332;11.180;2023-08-17T12:32:54;4.15;;;1.88;;
11283;SDS011;5698;47.332;11.180;2023-08-17T12:35:21;2.90;;;1.88;;
11283;SDS011;5698;47.332;11.180;2023-08-17T12:37:49;3.13;;;1.98;;
11283;SDS011;5698;47.332;11.180;2023-08-17T12:40:18;4.38;;;2.17;;
11283;SDS011;5698;47.332;11.180;2023-08-17T12:42:45;2.17;;;1.77;;
11283;SDS011;5698;47.332;11.180;2023-08-17T12:45:13;2.83;;;2.00;;
11283;SDS011;5698;47.332;11.180;2023-08-17T12:47:40;3.58;;;2.13;;
11283;SDS011;5698;47.332;11.180;2023-08-17T12:50:07;3.95;;;2.25;;
11283;SDS011;5698;47.332;11.180;2023-08-17T12:52:35;2.10;;;1.90;;
11283;SDS011;5698;47.332;11.180;2023-08-17T12:55:01;2.22;;;2.03;;
11283;SDS011;5698;47.332;11.180;2023-08-17T12:57:30;3.67;;;2.07;;
11283;SDS011;5698;47.332;11.180;2023-08-17T12:59:57;6.70;;;2.10;;
11283;SDS011;5698;47.332;11.180;2023-08-17T13:02:24;2.37;;;1.70;;
11283;SDS011;5698;47.332;11.180;2023-08-17T13:04:51;6.67;;;2.00;;
11283;SDS011;5698;47.332;11.180;2023-08-17T13:07:18;2.95;;;2.45;;
11283;SDS011;5698;47.332;11.180;2023-08-17T13:09:45;4.40;;;2.00;;
11283;SDS011;5698;47.332;11.180;2023-08-17T13:12:12;3.28;;;2.35;;
11283;SDS011;5698;47.332;11.180;2023-08-17T13:14:40;3.83;;;2.08;;
11283;SDS011;5698;47.332;11.180;2023-08-17T13:17:07;4.72;;;2.10;;
11283;SDS011;5698;47.332;11.180;2023-08-17T13:19:34;2.67;;;1.85;;
11283;SDS011;5698;47.332;11.180;2023-08-17T13:22:01;3.35;;;1.95;;
11283;SDS011;5698;47.332;11.180;2023-08-17T13:24:29;2.50;;;2.00;;
11283;SDS011;5698;47.332;11.180;2023-08-17T13:26:56;3.42;;;2.35;;
11283;SDS011;5698;47.332;11.180;2023-08-17T13:29:23;2.65;;;2.30;;
11283;SDS011;5698;47.332;11.180;2023-08-17T13:31:51;3.53;;;2.17;;
11283;SDS011;5698;47.332;11.180;2023-08-17T13:34:18;2.22;;;2.00;;
11283;SDS011;5698;47.332;11.180;2023-08-17T13:36:45;2.95;;;1.90;;
11283;SDS011;5698;47.332;11.180;2023-08-17T13:39:12;3.03;;;1.98;;
11283;SDS011;5698;47.332;11.180;2023-08-17T13:41:40;6.10;;;2.47;;
11283;SDS011;5698;47.332;11.180;2023-08-17T13:44:07;2.72;;;1.90;;
11283;SDS011;5698;47.332;11.180;2023-08-17T13:46:35;2.33;;;2.10;;
11283;SDS011;5698;47.332;11.180;2023-08-17T13:49:04;2.30;;;2.08;;
11283;SDS011;5698;47.332;11.180;2023-08-17T13:51:31;3.33;;;2.08;;
11283;SDS011;5698;47.332;11.180;2023-08-17T13:53:58;2.30;;;2.10;;
11283;SDS011;5698;47.332;11.180;2023-08-17T13:56:25;5.88;;;2.47;;
11283;SDS011;5698;47.332;11.180;2023-08-17T13:58:52;5.95;;;2.17;;
11283;SDS011;5698;47.332;11.180;2023-08-17T14:01:19;2.25;;;2.05;;
11283;SDS011;5698;47.332;11.180;2023-08-17T14:03:46;3.58;;;2.55;;
11283;SDS011;5698;47.332;11.180;2023-08-17T14:06:14;3.60;;;2.00;;
11283;SDS011;5698;47.332;11.180;2023-08-17T14:08:41;2.13;;;1.92;;
11283;SDS011;5698;47.332;11.180;2023-08-17T14:11:09;2.72;;;2.30;;
11283;SDS011;5698;47.332;11.180;2023-08-17T14:13:36;2.65;;;2.40;;
11283;SDS011;5698;47.332;11.180;2023-08-17T14:16:04;2.78;;;2.10;;
11283;SDS011;5698;47.332;11.180;2023-08-17T14:18:31;2.75;;;2.05;;
11283;SDS011;5698;47.332;11.180;2023-08-17T14:20:58;4.13;;;2.25;;
11283;SDS011;5698;47.332;11.180;2023-08-17T14:23:26;3.60;;;1.98;;
11283;SDS011;5698;47.332;11.180;2023-08-17T14:25:53;2.67;;;2.20;;
11283;SDS011;5698;47.332;11.180;2023-08-17T14:28:20;1.80;;;1.70;;
11283;SDS011;5698;47.332;11.180;2023-08-17T14:30:47;3.20;;;2.03;;
11283;SDS011;5698;47.332;11.180;2023-08-17T14:33:14;2.25;;;1.92;;
11283;SDS011;5698;47.332;11.180;2023-08-17T14:35:41;2.58;;;1.90;;
11283;SDS011;5698;47.332;11.180;2023-08-17T14:38:08;3.17;;;2.20;;
11283;SDS011;5698;47.332;11.180;2023-08-17T14:40:41;2.90;;;1.92;;
11283;SDS011;5698;47.332;11.180;2023-08-17T14:43:09;3.78;;;2.22;;
11283;SDS011;5698;47.332;11.180;2023-08-17T14:45:38;2.10;;;1.83;;
11283;SDS011;5698;47.332;11.180;2023-08-17T14:48:06;2.20;;;2.00;;
11283;SDS011;5698;47.332;11.180;2023-08-17T14:50:33;4.13;;;2.27;;
11283;SDS011;5698;47.332;11.180;2023-08-17T14:53:00;3.47;;;2.03;;